createdAt,value
2019-01-24T00:00:48.937Z,68.73
2019-01-24T00:03:17.400Z,62.23
2019-01-24T00:05:46.056Z,62.47
2019-01-24T00:08:14.684Z,66.83
2019-01-24T00:10:43.308Z,63.40
2019-01-24T00:13:12.115Z,67.67
2019-01-24T00:15:40.795Z,64.70
2019-01-24T00:18:09.650Z,61.57
2019-01-24T00:20:38.541Z,65.83
2019-01-24T00:23:07.206Z,72.97
2019-01-24T00:25:35.726Z,69.83
2019-01-24T00:28:04.388Z,68.30
2019-01-24T00:30:33.167Z,65.87
2019-01-24T00:33:01.783Z,72.53
2019-01-24T00:35:30.368Z,61.97
2019-01-24T00:37:58.981Z,64.73
2019-01-24T00:40:27.634Z,65.10
2019-01-24T00:42:56.352Z,68.30
2019-01-24T00:45:24.964Z,70.03
2019-01-24T00:47:53.504Z,67.87
2019-01-24T00:50:22.299Z,69.27
2019-01-24T00:52:51.227Z,67.17
2019-01-24T00:55:19.684Z,65.87
2019-01-24T00:57:48.678Z,70.43
2019-01-24T01:00:23.676Z,69.27
2019-01-24T01:02:52.407Z,65.00
2019-01-24T01:05:21.194Z,67.87
2019-01-24T01:07:49.808Z,76.63
2019-01-24T01:10:18.794Z,76.67
2019-01-24T01:12:47.910Z,72.27
2019-01-24T01:15:21.156Z,65.97
2019-01-24T01:17:49.746Z,72.80
2019-01-24T01:20:20.336Z,74.40
2019-01-24T01:22:49.242Z,73.10
2019-01-24T01:25:17.829Z,69.07
2019-01-24T01:27:46.684Z,72.20
2019-01-24T01:30:17.989Z,69.47
2019-01-24T01:32:46.723Z,66.33
2019-01-24T01:35:15.910Z,69.23
2019-01-24T01:37:44.369Z,69.30
2019-01-24T01:40:15.616Z,78.07
2019-01-24T01:42:44.488Z,67.80
2019-01-24T01:45:15.960Z,71.27
2019-01-24T01:47:44.550Z,74.43
2019-01-24T01:50:16.018Z,75.23
2019-01-24T01:52:44.604Z,74.40
2019-01-24T01:55:13.468Z,68.63
2019-01-24T01:57:42.180Z,69.77
2019-01-24T02:00:14.269Z,68.73
2019-01-24T02:02:43.222Z,68.53
2019-01-24T02:05:12.847Z,65.93
2019-01-24T02:07:41.643Z,67.87
2019-01-24T02:10:16.224Z,70.27
2019-01-24T02:12:45.197Z,66.53
2019-01-24T02:15:15.607Z,66.30
2019-01-24T02:17:44.590Z,69.27
2019-01-24T02:20:16.519Z,67.03
2019-01-24T02:22:45.530Z,70.73
2019-01-24T02:25:14.320Z,70.43
2019-01-24T02:27:43.734Z,62.97
2019-01-24T02:30:15.842Z,62.83
2019-01-24T02:32:44.923Z,63.60
2019-01-24T02:35:13.508Z,66.27
2019-01-24T02:37:53.049Z,65.83
2019-01-24T02:40:22.007Z,64.27
2019-01-24T02:42:50.831Z,64.23
2019-01-24T02:45:21.599Z,65.90
2019-01-24T02:47:50.129Z,70.20
2019-01-24T02:50:21.020Z,65.70
2019-01-24T02:52:49.806Z,67.67
2019-01-24T02:55:18.533Z,71.07
2019-01-24T02:57:47.210Z,73.03
2019-01-24T03:00:21.175Z,71.50
2019-01-24T03:02:50.238Z,76.17
2019-01-24T03:05:20.560Z,71.20
2019-01-24T03:07:50.111Z,68.97
2019-01-24T03:10:19.036Z,64.30
2019-01-24T03:12:48.172Z,67.30
2019-01-24T03:15:21.524Z,63.57
2019-01-24T03:17:50.846Z,61.90
2019-01-24T03:20:19.420Z,61.43
2019-01-24T03:22:48.038Z,66.90
2019-01-24T03:25:18.532Z,62.47
2019-01-24T03:27:47.296Z,67.47
2019-01-24T03:30:18.606Z,66.83
2019-01-24T03:32:47.113Z,68.07
2019-01-24T03:35:21.883Z,68.37
2019-01-24T03:37:50.687Z,61.57
2019-01-24T03:40:19.523Z,65.50
2019-01-24T03:42:48.203Z,65.80
2019-01-24T03:45:17.858Z,68.07
2019-01-24T03:47:46.726Z,68.30
2019-01-24T03:50:17.671Z,65.90
2019-01-24T03:52:46.086Z,66.27
2019-01-24T03:55:16.374Z,70.10
2019-01-24T03:57:44.861Z,65.80
2019-01-24T04:00:16.935Z,82.20
2019-01-24T04:02:45.912Z,71.00
2019-01-24T04:05:14.961Z,68.50
2019-01-24T04:07:43.576Z,62.10
2019-01-24T04:10:14.691Z,70.43
2019-01-24T04:12:43.374Z,69.37
2019-01-24T04:15:15.021Z,67.93
2019-01-24T04:17:43.592Z,65.93
2019-01-24T04:20:12.836Z,71.33
2019-01-24T04:22:42.135Z,72.80
2019-01-24T04:25:11.358Z,69.63
2019-01-24T04:27:39.866Z,68.77
2019-01-24T04:30:14.782Z,71.07
2019-01-24T04:32:43.261Z,68.70
2019-01-24T04:35:19.389Z,68.87
2019-01-24T04:37:43.089Z,68.27
2019-01-24T04:40:14.330Z,80.03
2019-01-24T04:42:43.170Z,67.50
2019-01-24T04:45:13.679Z,68.37
2019-01-24T04:47:42.649Z,71.73
2019-01-24T04:50:13.940Z,70.17
2019-01-24T04:52:42.416Z,69.73
2019-01-24T04:55:14.389Z,72.33
2019-01-24T04:57:43.275Z,73.83
2019-01-24T05:00:21.143Z,68.97
2019-01-24T05:02:49.679Z,73.30
2019-01-24T05:05:18.440Z,75.30
2019-01-24T05:07:47.023Z,68.50
2019-01-24T05:10:15.531Z,69.97
2019-01-24T05:12:44.263Z,70.50
2019-01-24T05:15:13.437Z,70.33
2019-01-24T05:17:42.003Z,76.87
2019-01-24T05:20:12.594Z,72.00
2019-01-24T05:22:41.657Z,71.93
2019-01-24T05:25:15.167Z,63.77
2019-01-24T05:27:43.851Z,72.57
2019-01-24T05:30:18.464Z,77.27
2019-01-24T05:32:46.990Z,70.80
2019-01-24T05:35:15.898Z,71.03
2019-01-24T05:37:44.340Z,72.07
2019-01-24T05:40:13.131Z,73.00
2019-01-24T05:42:41.752Z,73.63
2019-01-24T05:45:15.022Z,81.43
2019-01-24T05:47:43.769Z,76.83
2019-01-24T05:50:13.849Z,79.10
2019-01-24T05:52:42.894Z,77.10
2019-01-24T05:55:13.299Z,75.37
2019-01-24T05:57:42.115Z,83.10
2019-01-24T06:00:17.578Z,79.30
2019-01-24T06:02:46.567Z,70.40
2019-01-24T06:05:15.695Z,69.40
2019-01-24T06:07:44.244Z,78.83
2019-01-24T06:10:15.188Z,80.37
2019-01-24T06:12:43.711Z,70.93
2019-01-24T06:15:36.449Z,76.10
2019-01-24T06:18:05.278Z,77.00
2019-01-24T06:20:34.117Z,88.80
2019-01-24T06:23:02.520Z,84.37
2019-01-24T06:25:31.184Z,75.20
2019-01-24T06:27:59.815Z,79.60
2019-01-24T06:30:28.886Z,83.93
2019-01-24T06:32:57.546Z,78.60
2019-01-24T06:35:26.566Z,81.90
2019-01-24T06:37:55.266Z,79.63
2019-01-24T06:40:23.791Z,84.80
2019-01-24T06:42:52.753Z,89.47
2019-01-24T06:45:23.124Z,83.77
2019-01-24T06:47:52.157Z,87.90
2019-01-24T06:50:20.783Z,86.77
2019-01-24T06:52:49.605Z,86.07
2019-01-24T06:55:26.738Z,96.20
2019-01-24T06:57:55.963Z,96.23
2019-01-24T07:00:24.407Z,93.67
2019-01-24T07:02:54.014Z,98.27
2019-01-24T07:05:22.658Z,101.03
2019-01-24T07:07:51.428Z,96.53
2019-01-24T07:10:22.184Z,95.87
2019-01-24T07:12:50.967Z,103.90
2019-01-24T07:15:21.360Z,95.23
2019-01-24T07:17:49.951Z,88.10
2019-01-24T07:20:20.284Z,103.97
2019-01-24T07:22:49.226Z,97.40
2019-01-24T07:25:23.659Z,94.47
2019-01-24T07:27:52.908Z,94.47
2019-01-24T07:30:21.927Z,103.93
2019-01-24T07:32:50.473Z,106.97
2019-01-24T07:35:20.007Z,98.53
2019-01-24T07:37:48.602Z,107.33
2019-01-24T07:40:19.745Z,104.50
2019-01-24T07:42:49.148Z,98.60
2019-01-24T07:45:21.494Z,101.37
2019-01-24T07:47:50.312Z,108.37
2019-01-24T07:50:18.979Z,99.90
2019-01-24T07:52:47.905Z,102.93
2019-01-24T07:55:16.639Z,106.37
2019-01-24T07:57:45.154Z,104.03
2019-01-24T08:00:17.456Z,111.93
2019-01-24T08:02:46.426Z,98.60
2019-01-24T08:05:16.361Z,106.70
2019-01-24T08:07:45.180Z,111.23
2019-01-24T08:10:16.761Z,113.83
2019-01-24T08:12:45.679Z,108.00
2019-01-24T08:15:17.076Z,108.73
2019-01-24T08:17:45.946Z,109.77
2019-01-24T08:20:20.982Z,107.40
2019-01-24T08:22:49.427Z,100.37
2019-01-24T08:25:18.426Z,103.30
2019-01-24T08:27:46.875Z,99.80
2019-01-24T08:30:24.009Z,103.40
2019-01-24T08:32:52.475Z,101.47
2019-01-24T08:35:20.899Z,102.13
2019-01-24T08:37:49.479Z,106.47
2019-01-24T08:40:20.678Z,109.77
2019-01-24T08:42:49.410Z,105.13
2019-01-24T08:45:18.713Z,117.90
2019-01-24T08:47:47.571Z,112.37
2019-01-24T08:50:22.139Z,100.83
2019-01-24T08:52:51.144Z,105.60
2019-01-24T08:55:22.604Z,116.03
2019-01-24T08:57:51.353Z,107.00
2019-01-24T09:00:21.743Z,109.90
2019-01-24T09:02:51.905Z,108.77
2019-01-24T09:05:20.616Z,105.53
2019-01-24T09:07:49.206Z,110.77
2019-01-24T09:10:23.682Z,115.23
2019-01-24T09:12:52.295Z,106.70
2019-01-24T09:15:21.017Z,108.37
2019-01-24T09:17:49.472Z,109.17
2019-01-24T09:20:39.001Z,110.83
2019-01-24T09:23:08.112Z,114.53
2019-01-24T09:25:36.894Z,114.90
2019-01-24T09:28:05.707Z,112.50
2019-01-24T09:30:34.467Z,111.57
2019-01-24T09:33:03.279Z,117.83
2019-01-24T09:35:32.151Z,117.03
2019-01-24T09:38:00.984Z,117.03
2019-01-24T09:40:29.937Z,115.87
2019-01-24T09:42:59.063Z,118.37
2019-01-24T09:45:29.040Z,114.83
2019-01-24T09:47:59.485Z,115.40
2019-01-24T09:50:29.590Z,113.43
2019-01-24T09:52:58.586Z,111.80
2019-01-24T09:55:27.108Z,113.43
2019-01-24T09:57:55.700Z,108.67
2019-01-24T10:00:29.453Z,116.73
2019-01-24T10:02:58.473Z,115.23
2019-01-24T10:05:27.063Z,118.67
2019-01-24T10:07:55.688Z,105.40
2019-01-24T10:10:26.323Z,126.83
2019-01-24T10:12:55.579Z,116.07
2019-01-24T10:15:24.359Z,120.63
2019-01-24T10:17:53.553Z,113.73
2019-01-24T10:20:23.972Z,114.47
2019-01-24T10:22:52.485Z,116.80
2019-01-24T10:25:24.019Z,111.50
2019-01-24T10:27:52.995Z,119.33
2019-01-24T10:30:23.959Z,108.00
2019-01-24T10:32:53.137Z,118.50
2019-01-24T10:35:21.602Z,115.83
2019-01-24T10:37:50.544Z,118.83
2019-01-24T10:40:21.933Z,112.17
2019-01-24T10:42:50.804Z,115.00
2019-01-24T10:45:21.537Z,112.03
2019-01-24T10:47:52.041Z,114.57
2019-01-24T10:50:25.452Z,110.60
2019-01-24T10:52:53.952Z,126.67
2019-01-24T10:55:24.415Z,118.83
2019-01-24T10:57:54.452Z,112.20
2019-01-24T11:00:32.507Z,116.30
2019-01-24T11:03:02.527Z,115.60
2019-01-24T11:05:31.024Z,112.03
2019-01-24T11:07:59.553Z,114.10
2019-01-24T11:10:28.090Z,119.60
2019-01-24T11:12:57.081Z,114.83
2019-01-24T11:15:26.002Z,122.47
2019-01-24T11:17:54.606Z,113.67
2019-01-24T11:20:23.597Z,103.53
2019-01-24T11:22:52.382Z,112.77
2019-01-24T11:25:22.947Z,111.87
2019-01-24T11:27:51.976Z,107.57
2019-01-24T11:30:26.600Z,105.00
2019-01-24T11:32:55.505Z,109.87
2019-01-24T11:35:27.185Z,105.40
2019-01-24T11:37:55.791Z,99.63
2019-01-24T11:40:24.361Z,104.63
2019-01-24T11:42:53.850Z,105.93
2019-01-24T11:45:25.668Z,106.60
2019-01-24T11:47:54.069Z,110.47
2019-01-24T11:50:22.703Z,102.53
2019-01-24T11:52:51.768Z,96.73
2019-01-24T11:55:22.091Z,98.37
2019-01-24T11:57:50.882Z,102.97
2019-01-24T12:00:26.941Z,100.23
2019-01-24T12:02:55.566Z,104.90
2019-01-24T12:05:24.208Z,96.83
2019-01-24T12:07:52.626Z,102.97
2019-01-24T12:10:26.462Z,104.23
2019-01-24T12:12:55.063Z,97.37
2019-01-24T12:15:26.285Z,97.73
2019-01-24T12:17:54.863Z,90.70
2019-01-24T12:20:25.173Z,97.17
2019-01-24T12:22:53.859Z,100.73
2019-01-24T12:25:23.111Z,86.93
2019-01-24T12:27:51.873Z,97.90
2019-01-24T12:30:34.537Z,97.83
2019-01-24T12:33:03.877Z,89.00
2019-01-24T12:35:32.535Z,86.40
2019-01-24T12:38:01.147Z,95.20
2019-01-24T12:40:29.939Z,99.67
2019-01-24T12:42:58.394Z,95.00
2019-01-24T12:45:32.683Z,98.20
2019-01-24T12:48:01.389Z,93.00
2019-01-24T12:50:29.908Z,92.77
2019-01-24T12:52:58.639Z,93.83
2019-01-24T12:55:27.252Z,97.03
2019-01-24T12:57:56.434Z,99.60
2019-01-24T13:00:28.358Z,98.57
2019-01-24T13:02:56.860Z,95.57
2019-01-24T13:05:34.980Z,98.97
2019-01-24T13:08:03.625Z,95.10
2019-01-24T13:10:32.318Z,85.33
2019-01-24T13:13:00.835Z,84.07
2019-01-24T13:15:31.492Z,85.40
2019-01-24T13:18:00.332Z,77.23
2019-01-24T13:20:29.102Z,79.57
2019-01-24T13:22:57.976Z,88.87
2019-01-24T13:25:31.477Z,93.13
2019-01-24T13:28:00.032Z,86.73
2019-01-24T13:30:31.547Z,89.10
2019-01-24T13:33:00.788Z,87.27
2019-01-24T13:35:29.516Z,85.13
2019-01-24T13:37:58.343Z,80.67
2019-01-24T13:40:29.194Z,75.87
2019-01-24T13:42:58.383Z,75.77
2019-01-24T13:45:29.117Z,82.03
2019-01-24T13:47:57.658Z,74.80
2019-01-24T13:50:26.608Z,81.37
2019-01-24T13:52:55.571Z,84.03
2019-01-24T13:55:24.498Z,81.83
2019-01-24T13:57:53.564Z,78.70
2019-01-24T14:00:24.962Z,85.20
2019-01-24T14:02:59.817Z,91.53
2019-01-24T14:05:28.422Z,84.13
2019-01-24T14:07:57.177Z,81.77
2019-01-24T14:10:26.232Z,82.57
2019-01-24T14:12:55.355Z,76.70
2019-01-24T14:15:23.978Z,78.10
2019-01-24T14:17:52.977Z,83.80
2019-01-24T14:20:24.526Z,81.70
2019-01-24T14:22:53.314Z,83.80
2019-01-24T14:25:22.532Z,90.07
2019-01-24T14:27:51.243Z,78.00
2019-01-24T14:30:25.258Z,76.10
2019-01-24T14:32:53.823Z,78.10
2019-01-24T14:35:22.820Z,80.67
2019-01-24T14:37:51.473Z,84.17
2019-01-24T14:40:20.087Z,85.90
2019-01-24T14:42:48.552Z,73.93
2019-01-24T14:45:19.886Z,76.40
2019-01-24T14:47:48.771Z,73.00
2019-01-24T14:50:19.660Z,81.00
2019-01-24T14:52:48.641Z,77.67
2019-01-24T14:55:17.675Z,73.93
2019-01-24T14:57:46.447Z,77.83
2019-01-24T15:00:21.214Z,70.77
2019-01-24T15:02:50.244Z,67.77
2019-01-24T15:05:18.663Z,69.37
2019-01-24T15:07:47.713Z,67.93
2019-01-24T15:10:17.297Z,70.60
2019-01-24T15:12:46.293Z,71.23
2019-01-24T15:15:17.041Z,76.07
2019-01-24T15:17:46.000Z,72.23
2019-01-24T15:20:16.970Z,69.33
2019-01-24T15:22:45.737Z,66.60
2019-01-24T15:25:21.489Z,64.67
2019-01-24T15:27:50.612Z,68.63
2019-01-24T15:30:29.942Z,72.17
2019-01-24T15:32:59.926Z,70.23
2019-01-24T15:35:28.420Z,64.63
2019-01-24T15:37:57.357Z,61.70
2019-01-24T15:40:31.699Z,66.63
2019-01-24T15:43:00.764Z,68.97
2019-01-24T15:45:29.652Z,68.00
2019-01-24T15:47:58.420Z,71.50
2019-01-24T15:50:27.393Z,71.67
2019-01-24T15:52:56.409Z,67.77
2019-01-24T15:55:27.034Z,68.60
2019-01-24T15:57:56.023Z,68.57
2019-01-24T16:00:32.791Z,66.03
2019-01-24T16:03:01.460Z,63.27
2019-01-24T16:05:30.235Z,67.63
2019-01-24T16:08:01.923Z,63.20
2019-01-24T16:10:29.836Z,62.60
2019-01-24T16:12:58.871Z,65.33
2019-01-24T16:15:35.922Z,62.33
2019-01-24T16:18:07.256Z,60.80
2019-01-24T16:20:36.233Z,61.23
2019-01-24T16:23:08.806Z,58.60
2019-01-24T16:25:38.231Z,57.30
2019-01-24T16:28:07.108Z,60.90
2019-01-24T16:30:36.855Z,59.40
2019-01-24T16:33:07.680Z,58.10
2019-01-24T16:35:36.814Z,54.30
2019-01-24T16:38:09.633Z,61.73
2019-01-24T16:40:36.347Z,54.57
2019-01-24T16:43:05.528Z,59.13
2019-01-24T16:45:34.541Z,59.63
2019-01-24T16:48:03.418Z,61.67
2019-01-24T16:50:31.880Z,64.27
2019-01-24T16:53:00.891Z,58.47
2019-01-24T16:55:29.961Z,55.07
2019-01-24T16:57:58.979Z,61.47
2019-01-24T17:00:43.295Z,59.03
2019-01-24T17:03:12.330Z,56.33
2019-01-24T17:05:40.907Z,55.30
2019-01-24T17:08:16.459Z,51.20
2019-01-24T17:10:41.989Z,56.43
2019-01-24T17:13:10.544Z,56.50
2019-01-24T17:15:39.021Z,56.87
2019-01-24T17:18:08.280Z,60.83
2019-01-24T17:20:36.795Z,62.73
2019-01-24T17:23:06.064Z,55.47
2019-01-24T17:25:34.644Z,56.53
2019-01-24T17:28:03.779Z,59.27
2019-01-24T17:30:35.043Z,59.43
2019-01-24T17:33:05.952Z,64.23
2019-01-24T17:35:34.640Z,62.90
2019-01-24T17:38:03.371Z,72.53
2019-01-24T17:40:36.039Z,74.83
2019-01-24T17:43:05.331Z,80.60
2019-01-24T17:45:34.086Z,82.03
2019-01-24T17:48:02.573Z,80.33
2019-01-24T17:50:31.209Z,86.00
2019-01-24T17:52:59.669Z,85.73
2019-01-24T17:55:34.198Z,87.30
2019-01-24T17:58:03.359Z,85.13
2019-01-24T18:00:33.412Z,84.20
2019-01-24T18:03:02.016Z,87.67
2019-01-24T18:05:30.643Z,86.67
2019-01-24T18:07:59.716Z,85.43
2019-01-24T18:10:29.863Z,89.17
2019-01-24T18:12:58.916Z,89.30
2019-01-24T18:15:35.145Z,92.50
2019-01-24T18:18:05.695Z,105.67
2019-01-24T18:20:38.367Z,102.40
2019-01-24T18:23:11.480Z,99.57
2019-01-24T18:25:40.230Z,98.37
2019-01-24T18:28:11.057Z,98.03
2019-01-24T18:30:40.232Z,91.37
2019-01-24T18:33:09.167Z,91.10
2019-01-24T18:35:38.247Z,85.50
2019-01-24T18:38:07.318Z,88.93
2019-01-24T18:40:36.766Z,91.83
2019-01-24T18:43:08.053Z,91.03
2019-01-24T18:45:43.551Z,93.10
2019-01-24T18:48:12.367Z,85.77
2019-01-24T18:50:41.574Z,89.50
2019-01-24T18:53:10.088Z,94.67
2019-01-24T18:55:38.807Z,89.23
2019-01-24T18:58:07.661Z,86.67
2019-01-24T19:00:38.763Z,81.83
2019-01-24T19:03:09.128Z,82.00
2019-01-24T19:05:39.572Z,80.23
2019-01-24T19:08:08.428Z,79.10
2019-01-24T19:10:37.556Z,79.63
2019-01-24T19:13:07.120Z,77.17
2019-01-24T19:15:35.844Z,77.70
2019-01-24T19:18:06.254Z,74.17
2019-01-24T19:20:35.226Z,71.83
2019-01-24T19:23:05.306Z,68.90
2019-01-24T19:25:36.014Z,69.77
2019-01-24T19:28:07.581Z,69.43
2019-01-24T19:30:38.074Z,69.13
2019-01-24T19:33:07.283Z,62.17
2019-01-24T19:35:35.959Z,60.87
2019-01-24T19:38:05.013Z,62.90
2019-01-24T19:40:34.562Z,61.97
2019-01-24T19:43:05.268Z,62.43
2019-01-24T19:45:34.490Z,59.83
2019-01-24T19:48:06.041Z,59.77
2019-01-24T19:50:35.799Z,56.23
2019-01-24T19:53:06.311Z,54.90
2019-01-24T19:55:34.977Z,54.40
2019-01-24T19:58:05.875Z,51.47
2019-01-24T20:00:34.942Z,49.50
2019-01-24T20:03:04.748Z,51.17
2019-01-24T20:05:34.048Z,51.07
2019-01-24T20:08:04.570Z,52.20
2019-01-24T20:10:33.819Z,47.47
2019-01-24T20:13:03.321Z,53.73
2019-01-24T20:15:35.896Z,53.47
2019-01-24T20:18:06.722Z,50.67
2019-01-24T20:20:37.668Z,52.93
2019-01-24T20:23:07.222Z,52.00
2019-01-24T20:25:39.773Z,51.33
2019-01-24T20:28:10.014Z,54.90
2019-01-24T20:30:38.791Z,61.13
2019-01-24T20:33:09.473Z,53.67
2019-01-24T20:35:45.151Z,52.87
2019-01-24T20:38:14.077Z,57.90
2019-01-24T20:40:43.893Z,55.30
2019-01-24T20:43:16.980Z,52.60
2019-01-24T20:45:45.914Z,61.60
2019-01-24T20:48:17.466Z,55.97
2019-01-24T20:50:47.642Z,58.13
2019-01-24T20:53:18.492Z,62.17
2019-01-24T20:55:47.876Z,58.23
2019-01-24T20:58:16.695Z,59.37
2019-01-24T21:00:48.437Z,54.30
2019-01-24T21:03:20.237Z,54.63
2019-01-24T21:05:49.444Z,48.93
2019-01-24T21:08:18.581Z,58.63
2019-01-24T21:10:49.097Z,59.10
2019-01-24T21:13:18.075Z,54.97
2019-01-24T21:15:47.022Z,53.33
2019-01-24T21:18:15.819Z,58.10
2019-01-24T21:20:47.517Z,59.60
2019-01-24T21:23:16.852Z,59.07
2019-01-24T21:25:45.821Z,59.50
2019-01-24T21:28:14.807Z,59.63
2019-01-24T21:30:43.895Z,60.07
2019-01-24T21:33:12.729Z,57.10
2019-01-24T21:35:41.683Z,58.50
2019-01-24T21:38:10.385Z,60.87
2019-01-24T21:40:39.352Z,59.47
2019-01-24T21:43:08.552Z,58.67
2019-01-24T21:45:38.309Z,55.93
2019-01-24T21:48:07.998Z,57.60
2019-01-24T21:50:37.071Z,62.40
2019-01-24T21:53:06.627Z,61.77
2019-01-24T21:55:35.557Z,63.37
2019-01-24T21:58:05.672Z,67.53
2019-01-24T22:00:34.234Z,64.17
2019-01-24T22:03:03.048Z,66.47
2019-01-24T22:05:31.490Z,70.97
2019-01-24T22:08:00.742Z,67.77
2019-01-24T22:10:31.403Z,68.73
2019-01-24T22:13:00.258Z,68.17
2019-01-24T22:15:31.727Z,68.57
2019-01-24T22:18:00.553Z,73.80
2019-01-24T22:20:29.512Z,67.20
2019-01-24T22:22:58.389Z,72.20
2019-01-24T22:25:29.879Z,69.27
2019-01-24T22:27:58.462Z,69.33
2019-01-24T22:30:35.144Z,71.30
2019-01-24T22:33:04.262Z,76.97
2019-01-24T22:35:33.301Z,69.03
2019-01-24T22:38:02.375Z,72.17
2019-01-24T22:40:31.513Z,77.00
2019-01-24T22:43:00.611Z,73.93
2019-01-24T22:45:29.642Z,77.13
2019-01-24T22:47:58.667Z,71.20
2019-01-24T22:50:27.489Z,76.80
2019-01-24T22:52:56.375Z,71.60
2019-01-24T22:55:25.190Z,72.20
2019-01-24T22:57:54.055Z,71.57
2019-01-24T23:00:48.570Z,74.87
2019-01-24T23:03:23.562Z,76.50
2019-01-24T23:05:52.461Z,72.53
2019-01-24T23:08:20.899Z,73.87
2019-01-24T23:10:49.759Z,73.83
2019-01-24T23:13:18.850Z,74.67
2019-01-24T23:15:48.007Z,82.33
2019-01-24T23:18:16.901Z,78.87
2019-01-24T23:20:45.871Z,73.27
2019-01-24T23:23:14.983Z,73.37
2019-01-24T23:25:44.099Z,71.60
2019-01-24T23:28:13.121Z,68.17
2019-01-24T23:30:42.191Z,73.23
2019-01-24T23:33:11.040Z,67.03
2019-01-24T23:35:40.095Z,75.30
2019-01-24T23:38:09.038Z,75.50
2019-01-24T23:40:38.033Z,74.13
2019-01-24T23:43:07.029Z,71.73
2019-01-24T23:45:35.902Z,71.40
2019-01-24T23:48:04.997Z,75.20
2019-01-24T23:50:33.797Z,71.97
2019-01-24T23:53:02.693Z,67.63
2019-01-24T23:55:31.670Z,67.30
2019-01-24T23:58:00.587Z,62.50
